Time;durP1;ratioP1;P1;durP2;ratioP2;P2;SDS_P1;SDS_P2;PMS_P1;PMS_P2;Temp;Humidity;BMP_temperature;BMP_pressure;BME280_temperature;BME280_humidity;BME280_pressure;Samples;Min_cycle;Max_cycle;Signal;HPM_P1;HPM_P2
2022/02/12 00:00:13;;;;;;;11.35;2.22;;;;;;;2.44;72.12;101435.50;5063763;28;20037;-69
2022/02/12 00:02:39;;;;;;;15.00;2.25;;;;;;;2.35;71.96;101424.06;5063804;28;20039;-68
2022/02/12 00:05:05;;;;;;;9.13;2.53;;;;;;;2.44;71.84;101444.09;5063791;28;20025;-69
2022/02/12 00:07:31;;;;;;;15.52;2.33;;;;;;;2.42;71.62;101445.69;5063297;28;20047;-68
2022/02/12 00:09:56;;;;;;;13.13;2.67;;;;;;;2.39;71.46;101437.00;5063717;28;20052;-68
2022/02/12 00:12:21;;;;;;;15.10;2.88;;;;;;;2.39;71.62;101450.69;5045485;28;20029;-68
2022/02/12 00:14:47;;;;;;;14.95;2.13;;;;;;;2.35;71.77;101446.22;5063502;28;20017;-69
2022/02/12 00:17:12;;;;;;;22.58;3.08;;;;;;;2.31;71.62;101436.69;5063345;28;20021;-68
2022/02/12 00:19:38;;;;;;;13.48;2.42;;;;;;;2.29;72.11;101448.53;5063489;28;20047;-69
2022/02/12 00:22:03;;;;;;;10.85;2.35;;;;;;;2.33;72.00;101447.88;5063371;28;20020;-69
2022/02/12 00:24:29;;;;;;;15.02;3.50;;;;;;;2.33;72.13;101443.59;5063180;28;20139;-68
2022/02/12 00:26:54;;;;;;;16.33;2.90;;;;;;;2.33;71.88;101440.19;5063203;28;20025;-69
2022/02/12 00:29:19;;;;;;;22.05;3.75;;;;;;;2.31;71.63;101436.69;5062854;28;20036;-69
2022/02/12 00:31:45;;;;;;;24.13;3.13;;;;;;;2.32;71.58;101440.97;5062160;28;20023;-69
2022/02/12 00:34:10;;;;;;;23.77;3.45;;;;;;;2.29;71.53;101443.41;5062962;28;20025;-69
2022/02/12 00:36:36;;;;;;;20.00;2.85;;;;;;;2.20;71.56;101442.25;5063335;28;20078;-69
2022/02/12 00:39:03;;;;;;;25.20;2.67;;;;;;;2.12;72.00;101441.03;5062940;28;20025;-69
2022/02/12 00:41:29;;;;;;;10.77;3.10;;;;;;;2.03;72.87;101433.81;5063016;28;20061;-70
2022/02/12 00:43:54;;;;;;;9.65;2.40;;;;;;;1.98;73.24;101432.75;5062843;28;20036;-69
2022/02/12 00:46:19;;;;;;;18.60;3.22;;;;;;;1.93;72.98;101432.50;5062670;28;20115;-69
2022/02/12 00:48:45;;;;;;;19.75;2.17;;;;;;;1.93;73.55;101431.66;5062812;28;20017;-69
2022/02/12 00:51:13;;;;;;;13.05;3.30;;;;;;;1.93;74.16;101432.50;5044994;28;20096;-70
2022/02/12 00:53:39;;;;;;;18.92;3.38;;;;;;;1.91;74.29;101429.03;5063078;28;20025;-69
2022/02/12 00:56:04;;;;;;;14.57;2.72;;;;;;;1.95;74.53;101422.38;5062798;28;20099;-69
2022/02/12 00:58:30;;;;;;;15.25;2.80;;;;;;;1.93;74.37;101432.50;5062585;28;20385;-69
2022/02/12 01:00:55;;;;;;;15.23;3.75;;;;;;;1.90;74.62;101423.84;5062613;28;20017;-69
2022/02/12 01:03:20;;;;;;;16.70;2.53;;;;;;;1.91;74.98;101431.59;5062645;28;20437;-68
2022/02/12 01:05:46;;;;;;;14.43;2.42;;;;;;;1.93;74.95;101426.53;5062577;28;20021;-69
2022/02/12 01:08:11;;;;;;;13.10;3.88;;;;;;;1.91;75.34;101423.91;5062524;28;20523;-69
2022/02/12 01:10:36;;;;;;;15.15;3.15;;;;;;;1.98;75.25;101423.34;5063108;28;20025;-69
2022/02/12 01:13:02;;;;;;;13.95;2.15;;;;;;;1.98;75.29;101414.81;5062581;28;20032;-69
2022/02/12 01:15:28;;;;;;;18.40;3.33;;;;;;;2.03;75.50;101415.00;5062766;28;20021;-68
2022/02/12 01:17:53;;;;;;;20.10;2.97;;;;;;;2.06;75.26;101415.16;5062570;28;20092;-68
2022/02/12 01:20:19;;;;;;;18.27;3.42;;;;;;;2.08;75.53;101408.38;5062610;28;20025;-68
2022/02/12 01:22:47;;;;;;;3.55;1.38;;;;;;;2.09;75.71;101405.03;5062618;28;20510;-69
2022/02/12 01:25:13;;;;;;;25.67;3.00;;;;;;;2.14;75.65;101402.66;5062727;28;20029;-68
2022/02/12 01:27:38;;;;;;;15.38;3.35;;;;;;;2.15;75.40;101405.28;5044466;28;20029;-68
2022/02/12 01:30:05;;;;;;;16.40;2.72;;;;;;;2.18;75.31;101401.97;5062585;28;20074;-68
2022/02/12 01:32:30;;;;;;;15.60;3.83;;;;;;;2.23;75.29;101401.38;5062389;28;20036;-69
2022/02/12 01:34:56;;;;;;;7.35;1.83;;;;;;;2.25;75.03;101398.88;5062535;28;20017;-69
2022/02/12 01:37:24;;;;;;;23.58;3.17;;;;;;;2.19;74.90;101393.50;5062567;28;20067;-68
2022/02/12 01:39:50;;;;;;;12.98;3.50;;;;;;;2.23;74.86;101395.34;5062595;28;20020;-68
2022/02/12 01:42:16;;;;;;;26.35;6.78;;;;;;;2.21;74.79;101385.03;5062429;28;20047;-68
2022/02/12 01:44:42;;;;;;;8.02;2.28;;;;;;;2.23;74.68;101378.31;5066464;28;20025;-68
2022/02/12 01:47:10;;;;;;;21.13;3.30;;;;;;;2.25;74.73;101392.84;5066314;28;20025;-69
2022/02/12 01:49:36;;;;;;;4.70;1.98;;;;;;;2.26;74.65;101381.78;5066155;28;20052;-68
2022/02/12 01:52:05;;;;;;;24.60;3.25;;;;;;;2.24;74.77;101386.84;5066124;28;20025;-68
2022/02/12 01:54:31;;;;;;;9.52;3.88;;;;;;;2.27;74.36;101388.69;5066043;28;20413;-68
2022/02/12 01:56:59;;;;;;;10.45;2.45;;;;;;;2.26;74.92;101382.66;5066000;28;20017;-70
2022/02/12 01:59:25;;;;;;;29.20;3.83;;;;;;;2.31;74.79;101377.72;5066139;28;20103;-69
2022/02/12 02:01:51;;;;;;;5.40;2.15;;;;;;;2.31;74.65;101375.19;5066064;28;20020;-69
2022/02/12 02:04:17;;;;;;;28.80;2.63;;;;;;;2.22;74.90;101356.03;5065940;28;20025;-69
2022/02/12 02:06:43;;;;;;;12.82;1.90;;;;;;;2.25;74.89;101357.88;5066103;28;20086;-70
2022/02/12 02:09:09;;;;;;;11.85;3.25;;;;;;;2.26;74.93;101359.59;5065864;28;20035;-69
2022/02/12 02:11:36;;;;;;;22.48;3.50;;;;;;;2.23;74.75;101367.16;5065939;28;20021;-69
2022/02/12 02:14:03;;;;;;;16.45;2.90;;;;;;;2.23;74.56;101370.63;5065705;28;20025;-68
2022/02/12 02:16:28;;;;;;;20.42;3.45;;;;;;;2.19;74.71;101366.16;5065742;28;20029;-68
2022/02/12 02:18:54;;;;;;;20.30;3.40;;;;;;;2.17;74.77;101370.34;5065583;28;20495;-68
2022/02/12 02:21:23;;;;;;;25.00;3.47;;;;;;;2.15;75.12;101369.41;5065652;28;20084;-68
2022/02/12 02:23:50;;;;;;;12.27;2.30;;;;;;;2.10;75.24;101376.91;5065327;28;20076;-68
2022/02/12 02:26:15;;;;;;;16.38;3.17;;;;;;;2.13;75.27;101371.03;5065303;28;20059;-69
2022/02/12 02:28:41;;;;;;;14.07;4.00;;;;;;;2.12;75.16;101374.41;5065079;28;20103;-68
2022/02/12 02:31:06;;;;;;;14.98;2.25;;;;;;;2.07;75.36;101376.78;5065606;28;20017;-67
2022/02/12 02:33:32;;;;;;;10.63;2.55;;;;;;;2.08;75.25;101370.84;5065630;28;20385;-68
2022/02/12 02:35:57;;;;;;;11.00;2.53;;;;;;;2.05;75.31;101369.81;5065358;28;20036;-68
2022/02/12 02:38:24;;;;;;;22.38;1.75;;;;;;;2.08;75.32;101372.50;5065363;28;20025;-68
2022/02/12 02:40:52;;;;;;;9.35;1.95;;;;;;;2.02;75.56;101356.88;5065316;28;20013;-68
2022/02/12 02:43:17;;;;;;;13.88;2.45;;;;;;;2.01;75.48;101356.03;5065016;28;20036;-68
2022/02/12 02:45:43;;;;;;;18.70;3.42;;;;;;;2.05;75.61;101363.03;5065489;28;20025;-69
2022/02/12 02:48:09;;;;;;;13.45;2.75;;;;;;;2.02;75.52;101357.78;5064753;28;20080;-69
2022/02/12 02:56:04;;;;;;;15.48;2.30;;;;;;;2.00;75.80;101374.75;5064592;28;20070;-67
2022/02/12 02:58:29;;;;;;;11.30;1.45;;;;;;;1.97;75.87;101367.81;5064553;28;20036;-68
2022/02/12 03:00:55;;;;;;;19.98;2.83;;;;;;;1.98;76.00;101371.28;5064827;28;20044;-68
2022/02/12 03:03:21;;;;;;;15.70;2.97;;;;;;;1.99;75.83;101367.91;5065042;28;20083;-68
2022/02/12 03:05:46;;;;;;;9.23;2.17;;;;;;;1.99;75.82;101373.00;5064999;28;20104;-68
2022/02/12 03:08:12;;;;;;;10.75;2.33;;;;;;;1.97;76.13;101375.50;5064606;28;20509;-69
2022/02/12 03:10:38;;;;;;;13.68;2.30;;;;;;;2.02;75.83;101372.25;5064897;28;20028;-68
2022/02/12 03:13:03;;;;;;;14.57;2.15;;;;;;;2.02;75.88;101378.25;5064268;28;20428;-68
2022/02/12 03:15:29;;;;;;;6.88;2.08;;;;;;;1.98;76.06;101373.84;5064725;28;20446;-67
2022/02/12 03:17:54;;;;;;;11.75;3.20;;;;;;;1.95;76.21;101372.00;5064719;28;20036;-69
2022/02/12 03:20:20;;;;;;;16.20;3.22;;;;;;;1.93;76.21;101365.94;5064593;28;20024;-68
2022/02/12 03:22:45;;;;;;;19.70;2.42;;;;;;;1.94;76.30;101365.13;5064334;28;20025;-70
2022/02/12 03:25:11;;;;;;;20.05;2.03;;;;;;;1.91;76.29;101364.13;5064472;28;20067;-68
2022/02/12 03:27:36;;;;;;;16.02;2.35;;;;;;;1.94;76.40;101360.00;5046158;28;20028;-67
2022/02/12 03:30:02;;;;;;;6.28;1.55;;;;;;;1.89;76.27;101356.38;5064476;28;20029;-69
2022/02/12 03:32:27;;;;;;;20.88;4.20;;;;;;;1.90;76.34;101352.13;5064231;28;20055;-68
2022/02/12 03:34:52;;;;;;;14.90;2.78;;;;;;;1.89;76.66;101351.25;5064344;28;20029;-68
2022/02/12 03:37:18;;;;;;;10.98;2.40;;;;;;;1.89;76.31;101348.69;5064397;28;20025;-68
2022/02/12 03:39:43;;;;;;;15.02;3.00;;;;;;;1.85;76.39;101345.13;5064275;28;20047;-69
2022/02/12 03:42:09;;;;;;;14.88;2.80;;;;;;;1.80;76.29;101338.94;5064381;28;20470;-69
2022/02/12 03:44:35;;;;;;;12.95;2.42;;;;;;;1.89;76.45;101343.56;5064025;28;20032;-69
2022/02/12 03:47:00;;;;;;;8.30;2.38;;;;;;;1.92;76.53;101328.34;5064146;28;20017;-68
2022/02/12 03:49:25;;;;;;;7.35;1.85;;;;;;;1.94;76.59;101334.41;5063879;28;20025;-69
2022/02/12 03:51:51;;;;;;;15.82;3.83;;;;;;;2.02;76.52;101326.16;5064151;28;20059;-68
2022/02/12 03:54:16;;;;;;;14.60;2.20;;;;;;;1.99;76.55;101332.03;5063964;28;20025;-68
2022/02/12 03:56:41;;;;;;;13.82;2.33;;;;;;;1.98;76.53;101331.16;5063887;28;20036;-68
2022/02/12 03:59:07;;;;;;;21.27;3.45;;;;;;;2.03;76.44;101323.66;5063717;28;20085;-68
2022/02/12 04:01:32;;;;;;;20.55;2.45;;;;;;;2.09;76.29;101333.31;5045552;28;20060;-68
2022/02/12 04:03:57;;;;;;;12.55;2.40;;;;;;;2.08;76.28;101326.41;5063792;28;20040;-69
2022/02/12 04:06:23;;;;;;;13.85;3.33;;;;;;;2.08;76.21;101323.84;5063571;28;20047;-68
2022/02/12 04:08:48;;;;;;;10.43;2.95;;;;;;;2.07;76.28;101314.41;5063453;28;20100;-68
2022/02/12 04:11:14;;;;;;;11.43;2.95;;;;;;;2.06;76.05;101318.66;5063590;28;20025;-68
2022/02/12 04:13:39;;;;;;;12.88;2.53;;;;;;;2.05;76.31;101316.91;5063273;28;20025;-68
2022/02/12 04:16:05;;;;;;;16.67;2.60;;;;;;;2.10;76.18;101312.88;5063424;28;20080;-68
2022/02/12 04:18:30;;;;;;;16.08;2.10;;;;;;;2.08;76.31;101318.72;5063323;28;20018;-68
2022/02/12 04:20:55;;;;;;;20.33;3.00;;;;;;;2.10;76.16;101318.00;5045592;28;20035;-68
2022/02/12 04:23:21;;;;;;;15.60;2.72;;;;;;;2.13;76.02;101317.22;5063159;28;20049;-67
2022/02/12 04:25:46;;;;;;;13.05;2.67;;;;;;;2.10;76.00;101312.88;5063472;28;20036;-68
2022/02/12 04:28:12;;;;;;;17.48;2.55;;;;;;;2.14;76.03;101321.53;5062774;28;20025;-67
2022/02/12 04:30:38;;;;;;;8.52;2.00;;;;;;;2.15;76.14;101319.84;5063446;28;20017;-68
2022/02/12 04:33:04;;;;;;;19.15;2.67;;;;;;;2.20;75.98;101319.25;5063346;28;20017;-68
2022/02/12 04:35:30;;;;;;;14.48;2.35;;;;;;;2.22;75.91;101322.72;5063223;28;20028;-68
2022/02/12 04:37:55;;;;;;;21.98;3.80;;;;;;;2.25;76.01;101318.53;5045290;28;20090;-68
2022/02/12 04:40:21;;;;;;;15.32;2.47;;;;;;;2.28;75.75;101308.41;5063231;28;20032;-68
2022/02/12 04:42:46;;;;;;;10.65;3.33;;;;;;;2.28;75.59;101313.56;5062894;28;20064;-66
2022/02/12 04:45:12;;;;;;;16.98;2.42;;;;;;;2.31;75.40;101298.28;5063180;28;20035;-67
2022/02/12 04:47:39;;;;;;;13.82;2.20;;;;;;;2.30;75.28;101297.41;5063041;28;20027;-67
2022/02/12 04:50:05;;;;;;;14.00;2.28;;;;;;;2.29;75.14;101284.53;5063026;28;20021;-67
2022/02/12 04:52:31;;;;;;;13.60;2.58;;;;;;;2.23;75.04;101274.94;5062745;28;20103;-67
2022/02/12 04:54:56;;;;;;;9.02;2.13;;;;;;;2.28;74.81;101280.25;5063177;28;20242;-67
2022/02/12 04:57:21;;;;;;;13.05;1.95;;;;;;;2.27;74.90;101274.22;5062818;28;20024;-68
2022/02/12 04:59:47;;;;;;;15.60;2.08;;;;;;;2.25;74.68;101273.31;5045033;28;20055;-67
2022/02/12 05:02:12;;;;;;;3.60;1.40;;;;;;;2.23;74.46;101262.13;5063088;28;20013;-66
2022/02/12 05:04:38;;;;;;;14.80;3.03;;;;;;;2.21;74.63;101267.19;5044586;28;20497;-67
2022/02/12 05:07:03;;;;;;;19.85;3.10;;;;;;;2.18;74.67;101258.50;5062646;28;20465;-67
2022/02/12 05:09:31;;;;;;;10.98;2.00;;;;;;;2.17;74.67;101260.16;5062417;28;20043;-67
2022/02/12 05:11:56;;;;;;;7.45;1.27;;;;;;;2.13;74.73;101258.31;5062791;28;20021;-67
2022/02/12 05:14:21;;;;;;;14.93;2.63;;;;;;;2.04;74.82;101238.34;5062413;28;20031;-67
2022/02/12 05:16:47;;;;;;;12.88;2.13;;;;;;;2.08;75.10;101250.44;5062840;28;20017;-67
2022/02/12 05:19:12;;;;;;;7.57;2.22;;;;;;;2.12;74.98;101260.81;5066110;28;20029;-68
2022/02/12 05:21:38;;;;;;;15.98;2.50;;;;;;;2.07;74.91;101250.38;5066795;28;20029;-68
2022/02/12 05:24:04;;;;;;;11.15;2.33;;;;;;;2.08;74.78;101245.31;5066631;28;20049;-68
2022/02/12 05:26:29;;;;;;;23.98;3.03;;;;;;;2.04;75.29;101245.13;5066421;28;20085;-68
2022/02/12 05:28:55;;;;;;;18.92;2.58;;;;;;;1.94;75.31;101231.97;5066563;28;20104;-67
2022/02/12 05:31:21;;;;;;;17.33;2.72;;;;;;;1.93;75.68;101230.19;5066778;28;20079;-68
2022/02/12 05:33:46;;;;;;;13.90;2.30;;;;;;;1.91;76.01;101236.06;5066808;28;20079;-68
2022/02/12 05:36:12;;;;;;;15.48;2.65;;;;;;;1.87;75.90;101229.94;5066664;28;20028;-68
2022/02/12 05:38:39;;;;;;;12.05;1.90;;;;;;;1.80;75.85;101233.09;5066194;28;20013;-67
2022/02/12 05:41:09;;;;;;;20.85;4.03;;;;;;;1.78;76.24;101233.00;5066535;28;20025;-68
2022/02/12 05:43:36;;;;;;;16.60;3.97;;;;;;;1.76;76.38;101226.09;5066413;28;20017;-67
2022/02/12 05:46:03;;;;;;;12.20;2.08;;;;;;;1.72;76.33;101225.97;5066366;28;20044;-68
2022/02/12 05:48:29;;;;;;;16.88;3.75;;;;;;;1.72;76.69;101231.09;5066280;28;20461;-69
2022/02/12 05:50:54;;;;;;;9.07;1.85;;;;;;;1.71;76.86;101233.59;5066152;28;20032;-68
2022/02/12 05:53:20;;;;;;;12.23;2.47;;;;;;;1.73;76.80;101237.94;5066283;28;20032;-69
2022/02/12 05:55:46;;;;;;;12.05;2.50;;;;;;;1.69;76.94;101236.06;5048453;28;20020;-67
2022/02/12 05:58:11;;;;;;;8.55;1.80;;;;;;;1.66;77.02;101235.94;5065954;28;20017;-67
2022/02/12 06:00:36;;;;;;;12.80;2.30;;;;;;;1.67;76.96;101241.94;5065948;28;20543;-68
2022/02/12 06:03:02;;;;;;;10.65;2.05;;;;;;;1.67;77.34;101234.25;5066105;28;20025;-67
2022/02/12 06:05:27;;;;;;;21.25;3.50;;;;;;;1.71;77.24;101231.88;5066276;28;20041;-67
2022/02/12 06:07:53;;;;;;;11.05;2.60;;;;;;;1.73;77.18;101234.50;5047730;28;20440;-68
2022/02/12 06:10:18;;;;;;;19.33;3.53;;;;;;;1.57;77.09;101198.03;5065954;28;20024;-68
2022/02/12 06:12:43;;;;;;;24.23;6.07;;;;;;;1.75;77.21;101226.88;5047673;28;20032;-67
2022/02/12 06:15:09;;;;;;;19.10;2.72;;;;;;;1.76;77.12;101229.50;5065624;28;20020;-68
2022/02/12 06:17:35;;;;;;;19.02;2.28;;;;;;;1.75;77.17;101234.56;5065779;28;20017;-67
2022/02/12 06:20:01;;;;;;;21.25;2.83;;;;;;;1.80;76.98;101241.66;5065717;28;20040;-68
2022/02/12 06:22:27;;;;;;;16.65;2.55;;;;;;;1.81;76.93;101234.81;5065607;28;20528;-66
2022/02/12 06:24:53;;;;;;;24.92;4.10;;;;;;;1.84;76.86;101234.94;5065356;28;20123;-66
2022/02/12 06:27:19;;;;;;;6.95;1.98;;;;;;;1.83;76.79;101234.09;5065590;28;20036;-66
2022/02/12 06:29:45;;;;;;;16.95;2.35;;;;;;;1.89;76.71;101233.44;5064387;28;20037;-66
2022/02/12 06:32:10;;;;;;;11.98;2.72;;;;;;;1.93;76.53;101226.78;5065654;28;20021;-66
2022/02/12 06:34:35;;;;;;;7.90;1.85;;;;;;;1.85;76.48;101213.66;5065453;28;20465;-66
2022/02/12 06:37:01;;;;;;;12.85;3.42;;;;;;;1.96;76.35;101222.66;5065503;28;20025;-66
2022/02/12 06:39:27;;;;;;;6.55;1.70;;;;;;;2.01;75.80;101227.97;5065240;28;20110;-66
2022/02/12 06:41:52;;;;;;;16.08;3.25;;;;;;;2.04;75.71;101224.63;5065757;28;20476;-67
2022/02/12 06:44:18;;;;;;;11.82;2.05;;;;;;;2.09;75.53;101226.56;5065022;28;20025;-66
2022/02/12 06:46:46;;;;;;;13.02;2.10;;;;;;;2.12;75.21;101224.94;5065051;28;20017;-65
2022/02/12 06:49:11;;;;;;;3.40;1.23;;;;;;;2.14;75.06;101224.19;5065200;28;20045;-66
2022/02/12 06:51:36;;;;;;;16.00;2.05;;;;;;;2.16;75.00;101222.56;5064981;28;20048;-67
2022/02/12 06:54:03;;;;;;;9.32;1.73;;;;;;;2.16;74.57;101201.19;5064956;28;20373;-65
2022/02/12 06:56:29;;;;;;;19.35;2.70;;;;;;;2.19;74.35;101212.44;5065200;28;20029;-67
2022/02/12 06:58:55;;;;;;;19.63;2.55;;;;;;;2.13;74.13;101201.06;5064623;28;20033;-65
2022/02/12 07:01:20;;;;;;;14.30;2.63;;;;;;;2.18;74.18;101195.31;5064962;28;20089;-68
2022/02/12 07:03:46;;;;;;;5.13;1.63;;;;;;;2.19;73.91;101201.34;5065118;28;20021;-64
2022/02/12 07:06:11;;;;;;;8.63;1.50;;;;;;;2.19;73.59;101199.63;5064838;28;20434;-65
2022/02/12 07:08:37;;;;;;;17.60;2.83;;;;;;;2.17;73.39;101197.81;5064582;28;20061;-65
2022/02/12 07:11:02;;;;;;;16.67;3.28;;;;;;;2.23;73.45;101208.31;5064679;28;20025;-66
2022/02/12 07:13:27;;;;;;;9.25;2.22;;;;;;;2.23;73.39;101190.38;5064496;28;20037;-66
2022/02/12 07:15:54;;;;;;;15.82;1.85;;;;;;;2.28;73.39;101196.56;5064529;28;20021;-67
2022/02/12 07:18:21;;;;;;;22.00;3.65;;;;;;;2.27;73.17;101184.53;5064329;28;20027;-67
2022/02/12 07:20:46;;;;;;;10.40;2.15;;;;;;;2.27;73.13;101188.81;5064393;28;20024;-66
2022/02/12 07:23:12;;;;;;;27.90;3.53;;;;;;;2.28;73.15;101190.56;5064133;28;20052;-66
2022/02/12 07:25:37;;;;;;;20.45;3.47;;;;;;;2.29;72.85;101182.03;5064539;28;20017;-66
2022/02/12 07:28:02;;;;;;;11.90;2.47;;;;;;;2.33;72.94;101182.22;5064197;28;20017;-68
2022/02/12 07:30:28;;;;;;;11.48;1.90;;;;;;;2.34;72.79;101186.53;5064581;28;20029;-66
2022/02/12 07:32:53;;;;;;;20.25;2.95;;;;;;;2.35;72.30;101177.16;5064402;28;20056;-68
2022/02/12 07:35:19;;;;;;;14.57;3.22;;;;;;;2.40;72.59;101177.31;5064232;28;20029;-67
2022/02/12 07:37:46;;;;;;;9.95;3.05;;;;;;;2.45;72.37;101170.69;5064214;28;20062;-67
2022/02/12 07:40:13;;;;;;;9.27;2.40;;;;;;;2.42;72.36;101170.56;5063565;28;20497;-66
2022/02/12 07:42:39;;;;;;;12.25;2.40;;;;;;;2.49;72.25;101170.00;5063775;28;20060;-66
2022/02/12 07:45:05;;;;;;;13.02;2.17;;;;;;;2.45;72.26;101170.69;5064104;28;20025;-66
2022/02/12 07:47:31;;;;;;;8.75;2.50;;;;;;;2.50;72.32;101174.28;5063961;28;20025;-66
2022/02/12 07:49:56;;;;;;;6.25;2.08;;;;;;;2.50;72.43;101165.72;5063937;28;20028;-67
2022/02/12 07:52:22;;;;;;;17.67;3.97;;;;;;;2.52;72.33;101176.91;5063832;28;20025;-67
2022/02/12 07:54:48;;;;;;;12.07;2.28;;;;;;;2.44;72.39;101174.94;5063932;28;20025;-67
2022/02/12 07:57:14;;;;;;;8.63;1.67;;;;;;;2.53;72.31;101179.53;5063983;28;20032;-66
2022/02/12 07:59:40;;;;;;;12.50;1.95;;;;;;;2.55;72.40;101175.34;5063814;28;20021;-66
2022/02/12 08:02:05;;;;;;;18.25;2.80;;;;;;;2.59;72.16;101184.00;5045790;28;20017;-66
2022/02/12 08:04:30;;;;;;;12.77;1.95;;;;;;;2.60;72.20;101178.09;5063605;28;20025;-67
2022/02/12 08:09:40;;;;;;;17.27;2.47;;;;;;;2.59;72.11;101177.19;5063731;28;20113;-67
2022/02/12 08:12:14;;;;;;;10.95;2.17;;;;;;;2.63;71.96;101175.63;5063882;28;20528;-67
2022/02/12 08:14:41;;;;;;;12.52;2.20;;;;;;;2.64;71.75;101186.72;5063628;28;20017;-66
2022/02/12 08:17:06;;;;;;;14.65;2.58;;;;;;;2.64;71.85;101173.91;5063452;28;20047;-66
2022/02/12 08:19:32;;;;;;;10.85;2.35;;;;;;;2.63;71.82;101167.06;5045256;28;20017;-67
2022/02/12 08:21:57;;;;;;;21.33;3.53;;;;;;;2.65;71.72;101160.31;5045472;28;20035;-66
2022/02/12 08:24:23;;;;;;;19.33;1.98;;;;;;;2.68;71.69;101183.50;5063065;28;20053;-66
2022/02/12 08:26:48;;;;;;;13.52;2.30;;;;;;;2.71;71.55;101174.22;5044965;28;20032;-66
2022/02/12 08:29:14;;;;;;;19.92;3.17;;;;;;;2.70;71.52;101167.34;5063156;28;20033;-65
2022/02/12 08:31:39;;;;;;;14.80;2.05;;;;;;;2.65;71.40;101150.91;5063280;28;20025;-67
2022/02/12 08:34:04;;;;;;;17.42;3.15;;;;;;;2.62;71.30;101155.91;5044989;28;20032;-66
2022/02/12 08:36:30;;;;;;;12.02;2.15;;;;;;;2.71;71.21;101170.78;5063277;28;20457;-66
2022/02/12 08:38:58;;;;;;;10.68;3.00;;;;;;;2.59;71.03;101153.25;5063036;28;20033;-67
2022/02/12 08:41:24;;;;;;;7.47;1.10;;;;;;;2.69;70.84;101177.53;5063356;28;20028;-66
2022/02/12 08:43:49;;;;;;;17.00;2.55;;;;;;;2.70;71.17;101169.03;5062698;28;20032;-67
2022/02/12 08:46:14;;;;;;;11.85;1.95;;;;;;;2.72;71.06;101165.72;5063059;28;20028;-66
2022/02/12 08:48:40;;;;;;;17.00;2.08;;;;;;;2.72;70.95;101178.53;5062671;28;20052;-64
2022/02/12 08:51:07;;;;;;;9.25;2.00;;;;;;;2.72;71.04;101164.81;5063086;28;20052;-67
2022/02/12 08:53:32;;;;;;;3.20;1.30;;;;;;;2.75;70.93;101162.38;5062168;28;20044;-67
2022/02/12 08:55:58;;;;;;;11.43;1.88;;;;;;;2.73;70.82;101171.72;5063397;28;20251;-71
2022/02/12 08:58:23;;;;;;;5.47;1.83;;;;;;;2.73;70.98;101166.59;5062735;28;20040;-67
2022/02/12 09:00:49;;;;;;;11.82;1.80;;;;;;;2.71;71.01;101158.84;5062907;28;20106;-68
2022/02/12 09:03:15;;;;;;;9.75;1.42;;;;;;;2.75;71.13;101162.38;5062733;28;20611;-70
2022/02/12 09:05:41;;;;;;;15.23;2.20;;;;;;;2.80;70.97;101158.28;5062923;28;20025;-69
2022/02/12 09:08:06;;;;;;;11.57;2.50;;;;;;;2.83;70.70;101149.81;5062661;28;20036;-67
2022/02/12 09:10:32;;;;;;;12.38;2.20;;;;;;;2.88;70.47;101139.72;5062832;28;20021;-68
2022/02/12 09:12:58;;;;;;;12.15;2.08;;;;;;;2.86;70.34;101160.19;5062486;28;20104;-68
2022/02/12 09:15:24;;;;;;;10.18;1.92;;;;;;;2.89;70.38;101155.16;5062810;28;20475;-67
2022/02/12 09:17:50;;;;;;;11.63;2.42;;;;;;;2.91;70.07;101157.78;5062748;28;20527;-68
2022/02/12 09:20:15;;;;;;;11.73;1.88;;;;;;;2.88;70.13;101147.41;5062498;28;20033;-67
2022/02/12 09:22:40;;;;;;;15.02;2.03;;;;;;;2.91;70.11;101156.09;5044605;28;20500;-66
2022/02/12 09:25:08;;;;;;;8.27;1.88;;;;;;;2.92;69.79;101145.03;5062464;28;20032;-67
2022/02/12 09:27:34;;;;;;;14.57;2.03;;;;;;;2.92;69.82;101152.72;5062630;28;20462;-67
2022/02/12 09:29:59;;;;;;;16.35;2.63;;;;;;;2.91;69.57;101150.06;5062311;28;20060;-66
2022/02/12 09:32:26;;;;;;;12.88;2.10;;;;;;;2.85;69.77;101159.31;5062591;28;20032;-66
2022/02/12 09:34:53;;;;;;;11.10;1.55;;;;;;;2.86;69.63;101149.91;5062380;28;20120;-66
2022/02/12 09:37:18;;;;;;;20.25;3.03;;;;;;;2.87;69.78;101138.88;5062518;28;20076;-65
2022/02/12 09:39:43;;;;;;;9.45;1.75;;;;;;;2.92;69.62;101133.91;5062161;28;20024;-65
2022/02/12 09:42:10;;;;;;;8.98;1.83;;;;;;;2.89;69.43;101124.38;5062525;28;20027;-65
2022/02/12 09:44:38;;;;;;;10.32;2.58;;;;;;;2.85;69.51;101126.00;5062180;28;20021;-66
2022/02/12 09:47:32;;;;;;;17.10;2.72;;;;;;;2.99;69.55;101117.03;5062419;28;20018;-66
2022/02/12 09:49:58;;;;;;;9.50;1.98;;;;;;;3.00;69.15;101126.47;5062126;28;20029;-66
2022/02/12 09:52:29;;;;;;;8.90;2.67;;;;;;;3.03;68.97;101111.16;5062467;28;20028;-66
2022/02/12 09:54:55;;;;;;;2.53;1.05;;;;;;;2.97;68.85;101106.72;5062484;28;20091;-66
2022/02/12 09:57:20;;;;;;;11.70;3.25;;;;;;;2.98;69.21;101116.16;5062700;28;20029;-69
2022/02/12 09:59:46;;;;;;;5.93;1.60;;;;;;;2.97;69.27;101097.31;5062400;28;20048;-70
2022/02/12 10:02:18;;;;;;;15.93;2.50;;;;;;;3.04;69.56;101094.94;5044363;28;20044;-61
2022/02/12 10:04:43;;;;;;;15.65;2.67;;;;;;;3.05;69.57;101101.84;5064844;28;20024;-65
2022/02/12 10:07:25;;;;;;;15.30;3.35;;;;;;;3.09;69.51;101086.59;5065603;28;20040;-67
2022/02/12 10:10:15;;;;;;;15.75;2.33;;;;;;;3.11;69.32;101094.34;5065949;28;20092;-65
2022/02/12 10:12:41;;;;;;;6.25;1.88;;;;;;;3.08;69.42;101104.50;5065867;28;20076;-65
2022/02/12 10:15:24;;;;;;;3.88;1.42;;;;;;;3.14;69.54;101104.72;5065243;28;20059;-65
2022/02/12 10:17:56;;;;;;;15.00;2.50;;;;;;;3.16;69.41;101115.91;5065869;28;20040;-67
2022/02/12 10:20:32;;;;;;;13.68;2.25;;;;;;;3.21;69.41;101095.53;5065662;28;20024;-65
2022/02/12 10:23:20;;;;;;;11.18;1.98;;;;;;;3.24;69.21;101099.88;5065570;28;20025;-67
2022/02/12 10:25:48;;;;;;;8.25;2.42;;;;;;;3.27;69.27;101097.41;5065993;28;20031;-67
2022/02/12 10:28:16;;;;;;;9.10;2.97;;;;;;;3.28;69.27;101096.59;5065350;28;20017;-67
2022/02/12 10:30:47;;;;;;;27.65;3.25;;;;;;;3.33;69.42;101095.06;5065683;28;20025;-67
2022/02/12 10:33:14;;;;;;;7.85;2.83;;;;;;;3.38;69.36;101103.78;5065574;28;20017;-68
2022/02/12 10:35:41;;;;;;;7.80;1.77;;;;;;;3.44;69.38;101085.13;5047578;28;20055;-68
2022/02/12 10:38:10;;;;;;;10.25;1.80;;;;;;;3.44;69.36;101088.56;5065711;28;20025;-67
2022/02/12 10:40:36;;;;;;;4.60;1.30;;;;;;;3.45;69.53;101105.72;5066346;28;20021;-66
2022/02/12 10:43:02;;;;;;;8.25;2.08;;;;;;;3.48;69.51;101079.28;5065398;28;20025;-66
2022/02/12 10:45:29;;;;;;;5.97;1.67;;;;;;;3.47;69.72;101063.00;5047733;28;20111;-65
2022/02/12 10:47:57;;;;;;;13.35;3.28;;;;;;;3.63;69.44;101089.16;5065458;28;20105;-66
2022/02/12 10:50:25;;;;;;;12.02;2.38;;;;;;;3.71;69.51;101090.25;5065259;28;20040;-67
2022/02/12 10:52:56;;;;;;;20.48;4.65;;;;;;;3.80;69.28;101074.25;5065749;28;20048;-66
2022/02/12 10:55:56;;;;;;;15.38;2.63;;;;;;;3.79;68.90;101074.19;5047693;28;20366;-67
2022/02/12 10:58:23;;;;;;;9.85;2.38;;;;;;;3.85;69.27;101069.25;5065271;28;20024;-67
2022/02/12 11:00:50;;;;;;;34.30;3.47;;;;;;;3.85;68.82;101074.38;5065129;28;20055;-67
2022/02/12 11:03:18;;;;;;;9.18;3.78;;;;;;;3.79;68.88;101071.63;5064847;28;20080;-67
2022/02/12 11:05:54;;;;;;;8.75;2.20;;;;;;;3.76;69.04;101063.84;5065403;28;20016;-67
2022/02/12 11:08:21;;;;;;;12.60;2.42;;;;;;;3.78;68.95;101067.34;5064977;28;20035;-68
2022/02/12 11:10:47;;;;;;;8.82;1.90;;;;;;;3.66;68.99;101057.56;5065491;28;20102;-70
2022/02/12 11:13:13;;;;;;;13.73;2.58;;;;;;;3.53;69.05;101049.47;5064879;28;20041;-69
2022/02/12 11:15:39;;;;;;;8.55;2.25;;;;;;;3.47;69.56;101060.44;5064395;28;20029;-68
2022/02/12 11:18:10;;;;;;;12.30;2.67;;;;;;;3.33;70.02;101046.28;5064933;28;20523;-67
2022/02/12 11:20:36;;;;;;;12.45;2.10;;;;;;;3.36;69.97;101043.81;5065254;28;20029;-66
2022/02/12 11:23:20;;;;;;;8.45;1.88;;;;;;;3.30;70.33;101041.06;5046942;28;20056;-66
2022/02/12 11:25:54;;;;;;;12.98;2.65;;;;;;;3.34;70.09;101028.38;5064623;28;20029;-66
2022/02/12 11:28:27;;;;;;;14.98;3.05;;;;;;;3.33;70.31;101043.72;5064406;28;20039;-68
2022/02/12 11:31:27;;;;;;;13.85;2.30;;;;;;;3.37;70.22;101035.28;5064816;28;20029;-66